createdAt,value
2023-05-16T00:01:46.473Z,13.50
2023-05-16T00:04:14.606Z,12.50
2023-05-16T00:06:42.677Z,12.13
2023-05-16T00:09:10.598Z,14.07
2023-05-16T00:11:38.482Z,12.93
2023-05-16T00:14:06.545Z,13.63
2023-05-16T00:16:37.078Z,13.80
2023-05-16T00:19:06.579Z,15.07
2023-05-16T00:21:34.599Z,14.67
2023-05-16T00:24:02.504Z,15.17
2023-05-16T00:26:30.447Z,15.50
2023-05-16T00:28:58.332Z,17.10
2023-05-16T00:31:26.370Z,16.20
2023-05-16T00:33:54.718Z,14.93
2023-05-16T00:36:24.405Z,16.80
2023-05-16T00:38:52.308Z,17.93
2023-05-16T00:41:21.059Z,17.43
2023-05-16T00:43:48.965Z,18.73
2023-05-16T00:46:17.004Z,17.60
2023-05-16T00:48:45.146Z,19.67
2023-05-16T00:51:13.192Z,19.17
2023-05-16T00:53:42.611Z,19.77
2023-05-16T00:56:11.184Z,17.80
2023-05-16T00:58:39.158Z,21.00
2023-05-16T01:01:07.978Z,21.37
2023-05-16T01:03:36.271Z,22.43
2023-05-16T01:06:04.465Z,22.73
2023-05-16T01:08:32.398Z,21.90
2023-05-16T01:11:09.412Z,23.77
2023-05-16T01:13:45.047Z,23.47
2023-05-16T01:16:21.963Z,22.80
2023-05-16T01:18:58.209Z,25.40
2023-05-16T01:21:40.217Z,23.60
2023-05-16T01:24:16.697Z,24.53
2023-05-16T01:26:47.493Z,25.43
2023-05-16T01:29:16.574Z,25.60
2023-05-16T01:31:44.556Z,24.97
2023-05-16T01:34:12.690Z,24.70
2023-05-16T01:36:49.198Z,27.10
2023-05-16T01:39:23.648Z,27.10
2023-05-16T01:41:58.453Z,27.47
2023-05-16T01:44:33.031Z,26.80
2023-05-16T01:47:04.929Z,27.90
2023-05-16T01:49:37.600Z,30.23
2023-05-16T01:52:10.870Z,30.20
2023-05-16T01:54:40.939Z,30.87
2023-05-16T01:57:11.507Z,28.93
2023-05-16T01:59:40.378Z,30.53
2023-05-16T02:02:08.373Z,29.73
2023-05-16T02:04:36.415Z,29.13
2023-05-16T02:07:04.574Z,30.23
2023-05-16T02:09:32.556Z,30.07
2023-05-16T02:12:00.617Z,33.10
2023-05-16T02:14:29.931Z,31.57
2023-05-16T02:16:58.448Z,32.43
2023-05-16T02:19:26.531Z,32.47
2023-05-16T02:21:54.454Z,32.83
2023-05-16T02:24:22.486Z,32.53
2023-05-16T02:26:50.436Z,32.97
2023-05-16T02:29:18.485Z,33.00
2023-05-16T02:31:48.282Z,33.40
2023-05-16T02:34:16.640Z,32.97
2023-05-16T02:36:44.587Z,34.23
2023-05-16T02:39:12.910Z,33.40
2023-05-16T02:41:41.223Z,34.10
2023-05-16T02:44:09.187Z,35.20
2023-05-16T02:46:37.467Z,34.40
2023-05-16T02:49:06.917Z,35.60
2023-05-16T02:51:34.863Z,35.43
2023-05-16T02:54:02.818Z,33.07
2023-05-16T02:56:30.827Z,33.23
2023-05-16T02:58:58.759Z,34.00
2023-05-16T03:01:26.796Z,35.50
2023-05-16T03:03:54.950Z,34.77
2023-05-16T03:06:24.480Z,38.47
2023-05-16T03:08:52.679Z,36.20
2023-05-16T03:11:21.795Z,35.47
2023-05-16T03:13:50.051Z,37.33
2023-05-16T03:16:18.153Z,34.67
2023-05-16T03:18:46.212Z,37.70
2023-05-16T03:21:14.214Z,38.83
2023-05-16T03:23:43.532Z,36.90
2023-05-16T03:26:11.718Z,39.00
2023-05-16T03:28:39.632Z,37.70
2023-05-16T03:31:07.609Z,41.03
2023-05-16T03:33:35.777Z,37.67
2023-05-16T03:36:03.818Z,39.80
2023-05-16T03:38:32.503Z,40.40
2023-05-16T03:41:01.826Z,40.57
2023-05-16T03:43:29.978Z,39.70
2023-05-16T03:45:57.962Z,37.83
2023-05-16T03:48:26.005Z,38.07
2023-05-16T03:50:53.984Z,39.33
2023-05-16T03:53:24.672Z,38.00
2023-05-16T03:55:52.632Z,38.30
2023-05-16T03:58:21.915Z,37.47
2023-05-16T04:00:49.861Z,38.83
2023-05-16T04:03:17.862Z,38.53
2023-05-16T04:05:45.879Z,37.37
2023-05-16T04:08:13.786Z,39.70
2023-05-16T04:10:41.752Z,39.57
2023-05-16T04:13:09.941Z,39.03
2023-05-16T04:15:39.286Z,41.43
2023-05-16T04:18:07.452Z,40.03
2023-05-16T04:20:36.556Z,38.80
2023-05-16T04:23:04.477Z,40.30
2023-05-16T04:25:32.779Z,38.00
2023-05-16T04:28:08.344Z,40.43
2023-05-16T04:30:36.410Z,39.17
2023-05-16T04:33:06.190Z,39.50
2023-05-16T04:35:34.519Z,37.20
2023-05-16T04:38:02.473Z,38.53
2023-05-16T04:40:30.406Z,38.63
2023-05-16T04:42:58.345Z,39.63
2023-05-16T04:45:26.521Z,39.57
2023-05-16T04:47:54.745Z,37.80
2023-05-16T04:50:24.162Z,37.93
2023-05-16T04:52:52.821Z,38.43
2023-05-16T04:55:21.493Z,38.10
2023-05-16T04:57:49.471Z,39.10
2023-05-16T05:00:18.396Z,38.10
2023-05-16T05:02:46.851Z,37.50
2023-05-16T05:05:15.130Z,38.30
2023-05-16T05:07:44.485Z,36.53
2023-05-16T05:10:12.837Z,37.10
2023-05-16T05:12:40.808Z,36.23
2023-05-16T05:15:09.383Z,27.57
2023-05-16T05:17:38.694Z,38.20
2023-05-16T05:20:08.683Z,36.90
2023-05-16T05:22:36.944Z,35.47
2023-05-16T05:25:07.189Z,36.70
2023-05-16T05:27:35.123Z,38.20
2023-05-16T05:30:04.070Z,36.80
2023-05-16T05:32:32.265Z,35.97
2023-05-16T05:35:00.264Z,36.60
2023-05-16T05:37:28.747Z,34.50
2023-05-16T05:39:56.888Z,35.13
2023-05-16T05:42:26.238Z,34.97
2023-05-16T05:44:54.178Z,34.20
2023-05-16T05:47:22.334Z,33.70
2023-05-16T05:49:51.364Z,37.17
2023-05-16T05:52:19.353Z,35.03
2023-05-16T05:54:47.314Z,34.13
2023-05-16T05:57:15.268Z,34.97
2023-05-16T05:59:44.555Z,34.73
2023-05-16T06:02:12.602Z,34.00
2023-05-16T06:04:42.705Z,33.30
2023-05-16T06:07:10.663Z,32.70
2023-05-16T06:09:38.628Z,32.70
2023-05-16T06:12:07.248Z,31.90
2023-05-16T06:14:49.257Z,31.50
2023-05-16T06:17:17.280Z,35.13
2023-05-16T06:19:45.261Z,33.30
2023-05-16T06:22:13.264Z,32.57
2023-05-16T06:24:41.503Z,30.23
2023-05-16T06:27:10.307Z,30.43
2023-05-16T06:29:38.317Z,30.97
2023-05-16T06:32:09.355Z,28.93
2023-05-16T06:34:38.328Z,28.17
2023-05-16T06:37:06.669Z,29.03
2023-05-16T06:39:34.721Z,25.20
2023-05-16T06:42:02.737Z,22.57
2023-05-16T06:44:30.726Z,21.93
2023-05-16T06:46:58.904Z,20.77
2023-05-16T06:49:28.371Z,17.60
2023-05-16T06:51:56.445Z,19.67
2023-05-16T06:54:24.451Z,17.07
2023-05-16T06:56:52.428Z,16.40
2023-05-16T06:59:20.436Z,15.97
2023-05-16T07:01:48.756Z,16.37
2023-05-16T07:04:16.993Z,13.63
2023-05-16T07:06:46.567Z,13.73
2023-05-16T07:09:14.536Z,12.10
2023-05-16T07:11:42.570Z,13.00
2023-05-16T07:14:10.933Z,14.27
2023-05-16T07:16:39.032Z,15.17
2023-05-16T07:19:07.259Z,14.80
2023-05-16T07:21:35.325Z,15.23
2023-05-16T07:24:05.043Z,15.60
2023-05-16T07:26:33.026Z,15.30
2023-05-16T07:29:02.783Z,14.77
2023-05-16T07:31:31.134Z,16.63
2023-05-16T07:33:59.314Z,17.67
2023-05-16T07:36:27.404Z,17.80
2023-05-16T07:38:55.475Z,16.80
2023-05-16T07:41:25.599Z,17.30
2023-05-16T07:43:53.695Z,17.00
2023-05-16T07:46:21.720Z,18.97
2023-05-16T07:48:49.820Z,17.73
2023-05-16T07:51:17.828Z,18.77
2023-05-16T07:53:45.844Z,18.70
2023-05-16T07:56:13.911Z,18.00
2023-05-16T07:58:43.982Z,18.20
2023-05-16T08:01:12.095Z,17.67
2023-05-16T08:03:40.171Z,18.40
2023-05-16T08:06:08.515Z,18.87
2023-05-16T08:08:36.557Z,17.43
2023-05-16T08:11:05.730Z,16.87
2023-05-16T08:13:33.808Z,17.17
2023-05-16T08:16:03.218Z,17.40
2023-05-16T08:18:31.494Z,18.40
2023-05-16T08:20:59.554Z,17.63
2023-05-16T08:23:27.602Z,19.43
2023-05-16T08:25:55.745Z,18.93
2023-05-16T08:28:23.788Z,18.90
2023-05-16T08:30:51.844Z,18.67
2023-05-16T08:33:21.230Z,21.40
2023-05-16T08:35:49.868Z,20.57
2023-05-16T08:38:17.874Z,22.23
2023-05-16T08:40:46.006Z,21.23
2023-05-16T08:43:14.377Z,21.73
2023-05-16T08:45:42.669Z,22.07
2023-05-16T08:48:12.042Z,21.17
2023-05-16T08:50:42.908Z,22.00
2023-05-16T08:53:12.981Z,21.40
2023-05-16T08:55:43.464Z,19.13
2023-05-16T08:58:14.810Z,20.70
2023-05-16T09:00:43.288Z,19.40
2023-05-16T09:03:11.603Z,21.17
2023-05-16T09:05:41.701Z,18.97
2023-05-16T09:08:09.779Z,19.17
2023-05-16T09:10:37.820Z,17.20
2023-05-16T09:13:05.833Z,19.03
2023-05-16T09:15:34.680Z,17.50
2023-05-16T09:18:03.290Z,17.60
2023-05-16T09:20:31.543Z,18.03
2023-05-16T09:23:01.767Z,17.90
2023-05-16T09:25:32.302Z,17.40
2023-05-16T09:28:03.058Z,17.13
2023-05-16T09:30:32.654Z,17.73
2023-05-16T09:33:01.234Z,16.37
2023-05-16T09:38:01.629Z,15.43
2023-05-16T09:40:29.670Z,14.80
2023-05-16T09:43:05.550Z,16.97
2023-05-16T09:45:34.193Z,18.10
2023-05-16T09:48:05.860Z,15.70
2023-05-16T09:50:35.110Z,16.10
2023-05-16T09:53:05.085Z,13.60
2023-05-16T09:55:33.676Z,13.20
2023-05-16T09:58:01.933Z,13.10
2023-05-16T10:00:31.229Z,11.33
2023-05-16T10:03:02.381Z,11.33
2023-05-16T10:05:32.391Z,10.00
2023-05-16T10:08:00.745Z,10.10
2023-05-16T10:10:31.025Z,10.60
2023-05-16T10:13:01.448Z,9.77
2023-05-16T10:15:30.672Z,9.67
2023-05-16T10:18:01.947Z,9.77
2023-05-16T10:20:30.816Z,8.30
2023-05-16T10:23:00.293Z,9.83
2023-05-16T10:25:33.169Z,7.93
2023-05-16T10:28:01.813Z,8.07
2023-05-16T10:30:30.171Z,7.70
2023-05-16T10:32:58.871Z,8.73
2023-05-16T10:35:27.346Z,8.87
2023-05-16T10:37:56.141Z,9.30
2023-05-16T10:40:24.813Z,7.50
2023-05-16T10:42:57.873Z,6.93
2023-05-16T10:45:26.588Z,7.47
2023-05-16T10:47:56.259Z,6.23
2023-05-16T10:50:38.520Z,5.77
2023-05-16T10:53:18.054Z,6.03
2023-05-16T10:55:49.796Z,5.00
2023-05-16T10:58:25.148Z,5.50
2023-05-16T11:01:31.976Z,5.37
2023-05-16T11:04:08.265Z,5.10
2023-05-16T11:06:44.390Z,5.60
2023-05-16T11:09:24.037Z,4.40
2023-05-16T11:11:58.620Z,5.07
2023-05-16T11:14:32.090Z,5.40
2023-05-16T11:17:07.684Z,5.03
2023-05-16T11:19:40.475Z,5.50
2023-05-16T11:22:10.005Z,6.77
2023-05-16T11:24:39.386Z,7.47
2023-05-16T11:27:07.887Z,6.70
2023-05-16T11:29:37.699Z,6.70
2023-05-16T11:32:06.589Z,7.43
2023-05-16T11:34:38.635Z,7.30
2023-05-16T11:37:06.748Z,8.17
2023-05-16T11:39:34.951Z,7.47
2023-05-16T11:42:03.483Z,6.70
2023-05-16T11:44:34.034Z,7.17
2023-05-16T11:47:04.294Z,6.63
2023-05-16T11:49:32.704Z,7.20
2023-05-16T11:52:00.878Z,6.60
2023-05-16T11:54:29.263Z,6.17
2023-05-16T11:56:57.460Z,6.40
2023-05-16T11:59:26.476Z,6.20
2023-05-16T12:01:54.476Z,4.87
2023-05-16T12:04:23.980Z,4.10
2023-05-16T12:07:02.974Z,3.70
2023-05-16T12:09:31.176Z,2.90
2023-05-16T12:11:59.273Z,2.57
2023-05-16T12:14:27.676Z,2.67
2023-05-16T12:16:56.025Z,2.70
2023-05-16T12:19:25.764Z,2.77
2023-05-16T12:21:55.508Z,2.57
2023-05-16T12:24:30.503Z,2.30
2023-05-16T12:26:58.947Z,2.50
2023-05-16T12:29:26.961Z,2.57
2023-05-16T12:31:55.116Z,2.40
2023-05-16T12:34:23.385Z,1.97
2023-05-16T12:36:56.194Z,2.40
2023-05-16T12:39:24.261Z,2.33
2023-05-16T12:41:52.269Z,2.37
2023-05-16T12:44:23.540Z,2.53
2023-05-16T12:46:52.808Z,2.40
2023-05-16T12:49:22.724Z,3.17
2023-05-16T12:51:52.461Z,3.13
2023-05-16T12:54:22.957Z,2.87
2023-05-16T12:56:51.177Z,2.97
2023-05-16T12:59:20.264Z,2.70
2023-05-16T13:01:48.742Z,3.47
2023-05-16T13:04:20.009Z,2.37
2023-05-16T13:09:19.259Z,2.30
2023-05-16T13:11:48.575Z,2.33
2023-05-16T13:14:17.367Z,2.33
2023-05-16T13:16:45.615Z,2.40
2023-05-16T13:19:13.891Z,2.70
2023-05-16T13:21:41.939Z,2.57
2023-05-16T13:24:10.034Z,3.10
2023-05-16T13:26:38.518Z,2.67
2023-05-16T13:29:09.727Z,3.00
2023-05-16T13:31:37.826Z,2.50
2023-05-16T13:34:06.853Z,2.53
2023-05-16T13:36:49.378Z,2.70
2023-05-16T13:39:21.220Z,2.90
2023-05-16T13:41:49.404Z,2.50
2023-05-16T13:44:19.275Z,2.77
2023-05-16T13:46:47.386Z,2.50
2023-05-16T13:49:15.624Z,2.10
2023-05-16T13:51:43.869Z,2.13
2023-05-16T13:54:11.979Z,2.50
2023-05-16T13:56:40.066Z,2.90
2023-05-16T13:59:09.639Z,2.57
2023-05-16T14:01:40.338Z,2.47
2023-05-16T14:04:08.418Z,2.77
2023-05-16T14:06:37.294Z,2.40
2023-05-16T14:09:05.540Z,2.93
2023-05-16T14:11:33.550Z,2.53
2023-05-16T14:14:01.520Z,2.40
2023-05-16T14:16:31.092Z,2.50
2023-05-16T14:19:00.501Z,2.53
2023-05-16T14:21:28.497Z,2.43
2023-05-16T14:23:56.513Z,2.50
2023-05-16T14:26:25.581Z,2.40
2023-05-16T14:28:53.724Z,2.50
2023-05-16T14:31:21.893Z,2.83
2023-05-16T14:33:50.421Z,2.43
2023-05-16T14:36:19.793Z,2.50
2023-05-16T14:38:49.133Z,2.77
2023-05-16T14:41:17.467Z,2.57
2023-05-16T14:43:46.096Z,2.30
2023-05-16T14:46:14.185Z,2.57
2023-05-16T14:48:42.212Z,2.87
2023-05-16T14:51:10.316Z,2.40
2023-05-16T14:53:39.714Z,5.60
2023-05-16T14:56:07.926Z,5.23
2023-05-16T14:58:35.912Z,3.50
2023-05-16T15:01:04.254Z,3.67
2023-05-16T15:03:43.313Z,4.47
2023-05-16T15:06:19.085Z,4.10
2023-05-16T15:08:48.448Z,3.47
2023-05-16T15:11:16.539Z,3.67
2023-05-16T15:13:44.605Z,3.20
2023-05-16T15:16:12.699Z,3.60
2023-05-16T15:18:41.096Z,3.53
2023-05-16T15:21:09.253Z,2.90
2023-05-16T15:23:37.387Z,3.20
2023-05-16T15:26:06.917Z,3.63
2023-05-16T15:28:34.894Z,3.63
2023-05-16T15:31:04.867Z,3.50
2023-05-16T15:33:32.852Z,3.10
2023-05-16T15:36:01.650Z,3.00
2023-05-16T15:38:29.665Z,3.80
2023-05-16T15:41:13.470Z,3.40
2023-05-16T15:43:47.037Z,3.33
2023-05-16T15:46:15.056Z,4.40
2023-05-16T15:48:44.853Z,3.70
2023-05-16T15:51:13.877Z,3.13
2023-05-16T15:53:41.900Z,3.10
2023-05-16T15:56:10.833Z,3.37
2023-05-16T15:58:38.789Z,3.27
2023-05-16T16:01:08.228Z,3.47
2023-05-16T16:03:36.413Z,3.97
2023-05-16T16:06:04.732Z,3.40
2023-05-16T16:08:32.802Z,5.20
2023-05-16T16:11:00.812Z,3.80
2023-05-16T16:13:28.805Z,4.90
2023-05-16T16:15:56.759Z,3.43
2023-05-16T16:18:26.090Z,4.73
2023-05-16T16:20:54.715Z,3.67
2023-05-16T16:23:22.755Z,4.47
2023-05-16T16:25:50.738Z,2.97
2023-05-16T16:28:19.625Z,4.17
2023-05-16T16:30:50.322Z,3.70
2023-05-16T16:33:18.562Z,3.77
2023-05-16T16:35:48.169Z,3.10
2023-05-16T16:38:16.384Z,3.43
2023-05-16T16:40:44.402Z,3.27
2023-05-16T16:43:12.409Z,3.23
2023-05-16T16:45:40.358Z,7.13
2023-05-16T16:48:09.169Z,6.60
2023-05-16T16:50:37.286Z,3.50
2023-05-16T16:53:06.718Z,3.13
2023-05-16T16:55:35.854Z,2.80
2023-05-16T16:58:04.913Z,2.47
2023-05-16T17:00:33.127Z,2.30
2023-05-16T17:03:01.387Z,2.87
2023-05-16T17:05:29.732Z,2.23
2023-05-16T17:07:57.920Z,2.43
2023-05-16T17:10:27.449Z,2.17
2023-05-16T17:12:55.463Z,1.90
2023-05-16T17:15:23.595Z,2.20
2023-05-16T17:17:51.771Z,2.63
2023-05-16T17:20:19.834Z,2.30
2023-05-16T17:22:48.626Z,3.03
2023-05-16T17:25:16.622Z,2.90
2023-05-16T17:27:45.998Z,3.40
2023-05-16T17:30:14.467Z,2.40
2023-05-16T17:32:42.645Z,2.90
2023-05-16T17:35:10.737Z,2.40
2023-05-16T17:37:38.662Z,2.50
2023-05-16T17:40:10.329Z,2.30
2023-05-16T17:42:39.014Z,3.23
2023-05-16T17:45:10.023Z,4.27
2023-05-16T17:47:37.981Z,5.27
2023-05-16T17:50:09.411Z,6.77
2023-05-16T17:52:38.523Z,4.13
2023-05-16T17:55:07.540Z,3.33
2023-05-16T17:57:35.483Z,3.47
2023-05-16T18:00:05.480Z,2.80
2023-05-16T18:02:36.697Z,4.13
2023-05-16T18:05:07.279Z,3.70
2023-05-16T18:07:35.292Z,3.10
2023-05-16T18:10:03.571Z,3.20
2023-05-16T18:12:31.555Z,2.60
2023-05-16T18:15:13.072Z,2.73
2023-05-16T18:17:42.354Z,3.60
2023-05-16T18:20:11.820Z,3.87
2023-05-16T18:22:40.645Z,6.40
2023-05-16T18:25:10.578Z,5.70
2023-05-16T18:27:38.774Z,3.53
2023-05-16T18:30:08.284Z,5.83
2023-05-16T18:32:36.959Z,3.70
2023-05-16T18:35:07.645Z,3.20
2023-05-16T18:37:36.463Z,3.00
2023-05-16T18:40:04.923Z,2.37
2023-05-16T18:42:32.911Z,2.23
2023-05-16T18:45:00.829Z,2.30
2023-05-16T18:47:28.957Z,2.10
2023-05-16T18:49:56.958Z,3.17
2023-05-16T18:52:26.248Z,2.57
2023-05-16T18:54:54.191Z,1.77
2023-05-16T18:57:22.179Z,1.80
2023-05-16T18:59:52.168Z,6.47
2023-05-16T19:02:30.366Z,9.13
2023-05-16T19:05:09.644Z,5.00
2023-05-16T19:07:39.060Z,2.23
2023-05-16T19:10:08.327Z,5.77
2023-05-16T19:12:36.410Z,7.70
2023-05-16T19:15:04.547Z,4.40
2023-05-16T19:17:32.617Z,2.83
2023-05-16T19:20:01.768Z,2.67
2023-05-16T19:22:29.892Z,4.70
2023-05-16T19:24:59.203Z,4.43
2023-05-16T19:27:28.796Z,2.20
2023-05-16T19:29:56.892Z,3.40
2023-05-16T19:32:24.883Z,2.87
2023-05-16T19:34:53.474Z,2.30
2023-05-16T19:37:21.957Z,2.10
2023-05-16T19:39:49.872Z,2.60
2023-05-16T19:42:19.125Z,2.50
2023-05-16T19:44:47.051Z,1.97
2023-05-16T19:47:15.031Z,1.90
2023-05-16T19:49:42.999Z,2.00
2023-05-16T19:52:13.240Z,2.00
2023-05-16T19:54:41.533Z,2.07
2023-05-16T19:57:09.462Z,2.43
2023-05-16T19:59:38.716Z,1.90
2023-05-16T20:02:06.654Z,2.17
2023-05-16T20:04:34.639Z,1.90
2023-05-16T20:07:02.617Z,1.80
2023-05-16T20:09:30.596Z,2.40
2023-05-16T20:11:58.868Z,2.00
2023-05-16T20:14:27.663Z,1.77
2023-05-16T20:16:57.191Z,1.83
2023-05-16T20:19:25.362Z,1.70
2023-05-16T20:21:53.413Z,1.57
2023-05-16T20:24:21.357Z,1.60
2023-05-16T20:26:49.268Z,1.63
2023-05-16T20:29:17.235Z,1.70
2023-05-16T20:31:45.243Z,1.40
2023-05-16T20:34:14.565Z,1.77
2023-05-16T20:36:42.535Z,2.00
2023-05-16T20:39:10.520Z,1.70
2023-05-16T20:41:38.491Z,1.60
2023-05-16T20:44:06.760Z,1.50
2023-05-16T20:46:34.735Z,1.63
2023-05-16T20:49:02.747Z,1.83
2023-05-16T20:51:32.026Z,1.47
2023-05-16T20:54:00.050Z,1.30
2023-05-16T20:56:27.982Z,1.60
2023-05-16T20:58:55.916Z,1.53
2023-05-16T21:01:23.893Z,1.20
2023-05-16T21:03:51.887Z,1.50
2023-05-16T21:06:19.830Z,1.53
2023-05-16T21:08:49.113Z,1.27
2023-05-16T21:11:17.145Z,1.43
2023-05-16T21:13:45.077Z,1.77
2023-05-16T21:16:13.074Z,1.40
2023-05-16T21:18:41.169Z,2.07
2023-05-16T21:21:09.304Z,2.10
2023-05-16T21:23:37.264Z,2.20
2023-05-16T21:26:06.882Z,1.90
2023-05-16T21:28:39.654Z,2.80
2023-05-16T21:31:14.167Z,2.83
2023-05-16T21:33:42.124Z,2.57
2023-05-16T21:36:10.505Z,2.30
2023-05-16T21:38:38.510Z,2.17
2023-05-16T21:41:07.903Z,2.13
2023-05-16T21:43:35.953Z,2.15
2023-05-16T21:46:03.956Z,1.73
2023-05-16T21:48:32.012Z,1.70
2023-05-16T21:51:00.020Z,4.57
2023-05-16T21:53:28.028Z,4.63
2023-05-16T21:55:55.966Z,3.40
2023-05-16T21:58:25.469Z,2.60
2023-05-16T22:00:53.797Z,1.87
2023-05-16T22:03:21.830Z,2.00
2023-05-16T22:05:49.828Z,1.73
2023-05-16T22:08:17.783Z,1.55
2023-05-16T22:10:45.683Z,1.90
2023-05-16T22:13:13.617Z,2.45
2023-05-16T22:15:46.725Z,2.00
2023-05-16T22:18:20.381Z,2.08
2023-05-16T22:20:48.426Z,1.60
2023-05-16T22:23:16.391Z,1.88
2023-05-16T22:25:44.322Z,1.95
2023-05-16T22:28:12.258Z,2.00
2023-05-16T22:30:40.238Z,1.40
2023-05-16T22:33:09.625Z,1.13
2023-05-16T22:35:37.656Z,1.85
2023-05-16T22:38:05.871Z,2.00
2023-05-16T22:40:33.902Z,1.90
2023-05-16T22:43:01.831Z,1.73
2023-05-16T22:45:29.880Z,1.57
2023-05-16T22:47:57.979Z,1.90
2023-05-16T22:50:27.392Z,2.47
2023-05-16T22:52:55.361Z,1.95
2023-05-16T22:55:23.389Z,1.75
2023-05-16T22:57:52.747Z,1.65
2023-05-16T23:00:22.773Z,1.85
2023-05-16T23:02:51.071Z,2.10
2023-05-16T23:05:19.351Z,1.83
2023-05-16T23:07:48.666Z,1.70
2023-05-16T23:10:16.815Z,1.73
2023-05-16T23:12:44.760Z,1.73
2023-05-16T23:15:13.379Z,2.00
2023-05-16T23:17:41.664Z,2.20
2023-05-16T23:20:10.152Z,1.65
2023-05-16T23:22:38.133Z,2.00
2023-05-16T23:25:07.951Z,1.80
2023-05-16T23:27:36.489Z,1.90
2023-05-16T23:30:04.882Z,1.88
2023-05-16T23:32:32.881Z,1.63
2023-05-16T23:35:00.917Z,1.77
2023-05-16T23:37:30.087Z,1.67
2023-05-16T23:39:58.049Z,1.60
2023-05-16T23:42:27.298Z,1.52
2023-05-16T23:44:55.214Z,1.65
2023-05-16T23:47:23.419Z,2.00
2023-05-16T23:49:51.404Z,1.85
2023-05-16T23:52:19.312Z,2.28
2023-05-16T23:54:47.222Z,1.95
2023-05-16T23:57:15.163Z,1.83
2023-05-16T23:59:44.459Z,1.85
